createdAt,value
2023-05-09T00:01:21.034Z,21.25
2023-05-09T00:03:47.832Z,19.27
2023-05-09T00:06:15.432Z,17.45
2023-05-09T00:08:42.085Z,16.88
2023-05-09T00:11:08.945Z,22.13
2023-05-09T00:13:35.909Z,21.30
2023-05-09T00:16:03.481Z,19.02
2023-05-09T00:18:31.214Z,24.02
2023-05-09T00:20:58.047Z,17.85
2023-05-09T00:23:24.680Z,21.23
2023-05-09T00:25:51.371Z,24.02
2023-05-09T00:28:18.137Z,22.23
2023-05-09T00:30:44.886Z,19.85
2023-05-09T00:33:11.690Z,17.08
2023-05-09T00:35:38.611Z,18.88
2023-05-09T00:38:05.313Z,18.05
2023-05-09T00:40:32.019Z,19.20
2023-05-09T00:43:01.374Z,21.58
2023-05-09T00:45:28.107Z,23.25
2023-05-09T00:47:55.537Z,17.55
2023-05-09T00:50:22.170Z,16.77
2023-05-09T00:52:48.927Z,16.33
2023-05-09T00:55:16.451Z,18.23
2023-05-09T00:57:43.642Z,17.23
2023-05-09T01:00:14.465Z,19.08
2023-05-09T01:02:48.278Z,24.17
2023-05-09T01:05:15.441Z,25.13
2023-05-09T01:08:03.190Z,22.55
2023-05-09T01:10:32.764Z,24.50
2023-05-09T01:15:31.601Z,21.60
2023-05-09T01:21:08.749Z,22.58
2023-05-09T01:23:44.382Z,21.00
2023-05-09T01:26:45.257Z,17.55
2023-05-09T01:29:35.695Z,27.55
2023-05-09T01:32:10.053Z,27.58
2023-05-09T01:34:40.402Z,24.23
2023-05-09T01:37:08.317Z,30.27
2023-05-09T01:39:39.757Z,31.92
2023-05-09T01:42:09.665Z,32.53
2023-05-09T01:44:39.696Z,28.50
2023-05-09T01:47:08.163Z,36.47
2023-05-09T01:49:36.529Z,34.00
2023-05-09T01:52:08.087Z,28.95
2023-05-09T01:54:35.960Z,30.38
2023-05-09T01:57:04.015Z,27.63
2023-05-09T01:59:33.155Z,24.45
2023-05-09T02:02:00.042Z,27.35
2023-05-09T02:04:29.092Z,27.70
2023-05-09T02:06:57.070Z,27.58
2023-05-09T02:09:24.205Z,23.05
2023-05-09T02:11:50.858Z,28.38
2023-05-09T02:14:17.838Z,28.75
2023-05-09T02:16:44.595Z,26.67
2023-05-09T02:19:11.350Z,26.15
2023-05-09T02:21:38.318Z,26.10
2023-05-09T02:24:05.432Z,24.23
2023-05-09T02:26:32.848Z,25.15
2023-05-09T02:29:00.694Z,26.80
2023-05-09T02:31:29.558Z,28.30
2023-05-09T02:33:56.934Z,25.25
2023-05-09T02:36:25.214Z,23.35
2023-05-09T02:38:52.127Z,24.70
2023-05-09T02:41:18.921Z,22.77
2023-05-09T02:43:46.128Z,28.33
2023-05-09T02:46:13.023Z,27.27
2023-05-09T02:48:39.848Z,29.92
2023-05-09T02:51:06.561Z,32.05
2023-05-09T02:53:33.311Z,32.08
2023-05-09T02:55:59.927Z,24.02
2023-05-09T02:58:26.694Z,31.42
2023-05-09T03:00:53.289Z,30.95
2023-05-09T03:03:22.110Z,28.73
2023-05-09T03:05:48.846Z,32.35
2023-05-09T03:08:15.953Z,28.73
2023-05-09T03:10:42.653Z,23.05
2023-05-09T03:13:09.326Z,21.58
2023-05-09T03:15:36.094Z,20.40
2023-05-09T03:18:02.773Z,25.45
2023-05-09T03:20:29.423Z,24.58
2023-05-09T03:22:56.104Z,27.23
2023-05-09T03:25:22.824Z,25.33
2023-05-09T03:27:49.497Z,26.25
2023-05-09T03:30:16.161Z,33.42
2023-05-09T03:32:42.964Z,25.40
2023-05-09T03:35:09.732Z,26.77
2023-05-09T03:37:36.352Z,27.85
2023-05-09T03:40:03.828Z,31.58
2023-05-09T03:42:30.988Z,27.52
2023-05-09T03:44:58.043Z,28.60
2023-05-09T03:47:24.622Z,28.55
2023-05-09T03:49:51.340Z,25.25
2023-05-09T03:52:17.945Z,28.52
2023-05-09T03:54:44.537Z,25.42
2023-05-09T03:57:11.326Z,30.55
2023-05-09T03:59:37.900Z,25.40
2023-05-09T04:02:04.668Z,30.83
2023-05-09T04:04:31.345Z,30.77
2023-05-09T04:06:57.960Z,30.25
2023-05-09T04:09:24.896Z,30.33
2023-05-09T04:11:51.478Z,26.02
2023-05-09T04:14:18.349Z,27.90
2023-05-09T04:16:44.988Z,22.58
2023-05-09T04:19:11.729Z,23.58
2023-05-09T04:21:38.414Z,29.77
2023-05-09T04:24:05.765Z,29.30
2023-05-09T04:26:32.724Z,32.45
2023-05-09T04:28:59.354Z,29.52
2023-05-09T04:31:26.587Z,31.40
2023-05-09T04:33:53.627Z,30.15
2023-05-09T04:36:21.217Z,28.50
2023-05-09T04:38:47.816Z,26.85
2023-05-09T04:41:14.581Z,32.72
2023-05-09T04:43:41.476Z,31.17
2023-05-09T04:46:08.365Z,23.75
2023-05-09T04:48:35.887Z,28.15
2023-05-09T04:51:02.533Z,23.35
2023-05-09T04:53:29.549Z,33.13
2023-05-09T04:55:56.245Z,33.05
2023-05-09T04:58:22.991Z,34.30
2023-05-09T05:00:50.049Z,30.85
2023-05-09T05:03:17.897Z,32.50
2023-05-09T05:05:45.158Z,29.35
2023-05-09T05:08:11.929Z,25.38
2023-05-09T05:10:38.673Z,28.55
2023-05-09T05:13:05.433Z,27.90
2023-05-09T05:15:32.060Z,35.22
2023-05-09T05:17:58.719Z,33.95
2023-05-09T05:20:25.354Z,33.15
2023-05-09T05:22:52.076Z,39.45
2023-05-09T05:25:18.750Z,39.00
2023-05-09T05:27:45.455Z,34.28
2023-05-09T05:30:13.798Z,35.30
2023-05-09T05:32:40.572Z,36.20
2023-05-09T05:35:07.674Z,34.58
2023-05-09T05:37:34.346Z,35.17
2023-05-09T05:40:01.244Z,32.53
2023-05-09T05:42:27.974Z,32.65
2023-05-09T05:44:54.568Z,32.22
2023-05-09T05:47:21.195Z,29.15
2023-05-09T05:49:48.466Z,31.75
2023-05-09T05:52:15.074Z,34.47
2023-05-09T05:54:41.853Z,30.35
2023-05-09T05:57:08.592Z,34.80
2023-05-09T05:59:35.328Z,28.15
2023-05-09T06:02:02.132Z,34.42
2023-05-09T06:04:29.077Z,33.33
2023-05-09T06:06:55.853Z,36.33
2023-05-09T06:09:22.493Z,30.92
2023-05-09T06:11:49.128Z,28.90
2023-05-09T06:14:15.719Z,29.70
2023-05-09T06:16:42.424Z,36.50
2023-05-09T06:19:09.052Z,33.20
2023-05-09T06:21:35.694Z,33.15
2023-05-09T06:24:10.137Z,34.63
2023-05-09T06:26:41.179Z,35.43
2023-05-09T06:29:08.106Z,35.33
2023-05-09T06:31:39.114Z,32.97
2023-05-09T06:34:06.375Z,35.65
2023-05-09T06:36:33.447Z,35.03
2023-05-09T06:39:00.392Z,32.45
2023-05-09T06:41:27.033Z,32.70
2023-05-09T06:43:53.771Z,36.42
2023-05-09T06:46:20.512Z,37.53
2023-05-09T06:48:47.201Z,37.45
2023-05-09T06:51:13.804Z,30.52
2023-05-09T06:53:40.402Z,32.97
2023-05-09T06:56:07.279Z,30.90
2023-05-09T06:58:33.939Z,34.47
2023-05-09T07:01:00.651Z,35.50
2023-05-09T07:03:27.455Z,36.63
2023-05-09T07:05:56.800Z,38.08
2023-05-09T07:08:23.376Z,30.90
2023-05-09T07:10:50.036Z,32.63
2023-05-09T07:13:16.845Z,36.85
2023-05-09T07:15:43.700Z,34.85
2023-05-09T07:18:10.581Z,37.17
2023-05-09T07:20:37.460Z,32.38
2023-05-09T07:23:04.801Z,34.33
2023-05-09T07:25:31.912Z,31.60
2023-05-09T07:27:58.641Z,37.65
2023-05-09T07:30:25.348Z,33.35
2023-05-09T07:32:52.359Z,35.58
2023-05-09T07:35:20.041Z,39.20
2023-05-09T07:37:46.828Z,34.05
2023-05-09T07:40:14.057Z,34.97
2023-05-09T07:42:40.974Z,38.15
2023-05-09T07:45:08.068Z,39.05
2023-05-09T07:47:34.933Z,37.63
2023-05-09T07:50:01.702Z,37.55
2023-05-09T07:52:28.335Z,41.75
2023-05-09T07:54:55.120Z,40.42
2023-05-09T07:57:22.534Z,42.05
2023-05-09T07:59:49.219Z,36.30
2023-05-09T08:02:15.933Z,35.47
2023-05-09T08:04:42.652Z,44.45
2023-05-09T08:07:09.420Z,38.83
2023-05-09T08:09:36.232Z,40.95
2023-05-09T08:12:02.964Z,41.35
2023-05-09T08:14:29.825Z,39.22
2023-05-09T08:16:56.436Z,36.58
2023-05-09T08:19:26.134Z,35.25
2023-05-09T08:21:53.344Z,37.15
2023-05-09T08:24:20.207Z,34.40
2023-05-09T08:26:47.146Z,34.58
2023-05-09T08:29:13.894Z,34.45
2023-05-09T08:31:41.142Z,32.47
2023-05-09T08:34:07.927Z,35.53
2023-05-09T08:36:34.714Z,34.60
2023-05-09T08:39:02.350Z,35.40
2023-05-09T08:41:29.753Z,36.65
2023-05-09T08:43:56.586Z,35.65
2023-05-09T08:46:28.559Z,38.25
2023-05-09T08:48:56.756Z,34.50
2023-05-09T08:51:23.958Z,33.25
2023-05-09T08:53:51.951Z,35.00
2023-05-09T08:56:18.892Z,38.90
2023-05-09T08:58:45.852Z,41.25
2023-05-09T09:01:14.390Z,31.92
2023-05-09T09:03:47.529Z,40.08
2023-05-09T09:06:14.369Z,38.53
2023-05-09T09:08:41.953Z,40.20
2023-05-09T09:11:11.918Z,39.15
2023-05-09T09:13:41.190Z,39.75
2023-05-09T09:16:20.968Z,40.03
2023-05-09T09:18:49.654Z,41.95
2023-05-09T09:21:17.815Z,40.97
2023-05-09T09:23:47.616Z,43.45
2023-05-09T09:26:14.303Z,42.22
2023-05-09T09:28:41.388Z,38.78
2023-05-09T09:31:25.544Z,37.95
2023-05-09T09:33:52.224Z,37.03
2023-05-09T09:36:29.125Z,40.85
2023-05-09T09:39:00.642Z,44.25
2023-05-09T09:41:34.303Z,43.47
2023-05-09T09:44:11.543Z,41.47
2023-05-09T09:46:48.871Z,39.67
2023-05-09T09:49:18.160Z,43.53
2023-05-09T09:51:45.049Z,40.92
2023-05-09T09:54:13.095Z,39.65
2023-05-09T09:56:40.277Z,37.33
2023-05-09T09:59:12.197Z,42.83
2023-05-09T10:02:09.501Z,44.45
2023-05-09T10:04:37.940Z,41.55
2023-05-09T10:07:07.176Z,43.17
2023-05-09T10:09:35.160Z,43.38
2023-05-09T10:12:06.454Z,37.88
2023-05-09T10:14:35.838Z,37.20
2023-05-09T10:17:04.863Z,39.00
2023-05-09T10:19:32.260Z,39.20
2023-05-09T10:22:10.308Z,38.08
2023-05-09T10:24:45.750Z,35.63
2023-05-09T10:27:13.107Z,39.10
2023-05-09T10:29:45.762Z,35.17
2023-05-09T10:32:18.256Z,35.40
2023-05-09T10:34:50.088Z,36.30
2023-05-09T10:37:17.944Z,38.60
2023-05-09T10:39:44.692Z,33.72
2023-05-09T10:42:13.982Z,34.15
2023-05-09T10:44:40.932Z,35.85
2023-05-09T10:47:08.096Z,38.35
2023-05-09T10:49:37.088Z,33.65
2023-05-09T10:52:04.382Z,35.15
2023-05-09T10:54:33.511Z,34.00
2023-05-09T10:57:00.877Z,34.45
2023-05-09T10:59:38.058Z,29.73
2023-05-09T11:02:05.582Z,32.40
2023-05-09T11:04:33.051Z,29.55
2023-05-09T11:07:00.756Z,34.20
2023-05-09T11:09:38.922Z,33.17
2023-05-09T11:12:06.019Z,31.50
2023-05-09T11:14:54.550Z,26.95
2023-05-09T11:17:21.244Z,28.30
2023-05-09T11:19:47.962Z,30.00
2023-05-09T11:22:22.215Z,29.08
2023-05-09T11:24:50.322Z,29.70
2023-05-09T11:27:19.514Z,29.60
2023-05-09T11:29:51.170Z,30.13
2023-05-09T11:32:18.334Z,35.20
2023-05-09T11:34:45.780Z,31.85
2023-05-09T11:37:15.843Z,39.67
2023-05-09T11:40:00.053Z,40.40
2023-05-09T11:42:30.481Z,33.40
2023-05-09T11:44:58.922Z,40.47
2023-05-09T11:47:26.384Z,34.30
2023-05-09T11:49:53.218Z,40.03
2023-05-09T11:52:21.703Z,40.25
2023-05-09T11:54:49.655Z,49.80
2023-05-09T11:57:19.620Z,48.38
2023-05-09T11:59:46.368Z,49.80
2023-05-09T12:02:13.481Z,51.00
2023-05-09T12:04:40.195Z,52.80
2023-05-09T12:07:07.124Z,54.47
2023-05-09T12:09:37.890Z,57.30
2023-05-09T12:12:14.429Z,65.70
2023-05-09T12:14:41.680Z,83.15
2023-05-09T12:17:08.459Z,82.95
2023-05-09T12:19:35.449Z,83.78
2023-05-09T12:22:03.825Z,84.55
2023-05-09T12:24:31.284Z,79.13
2023-05-09T12:26:59.505Z,63.92
2023-05-09T12:29:27.246Z,66.18
2023-05-09T12:31:54.530Z,62.70
2023-05-09T12:34:21.518Z,50.90
2023-05-09T12:36:50.851Z,53.13
2023-05-09T12:39:22.897Z,45.85
2023-05-09T12:42:01.059Z,40.20
2023-05-09T12:44:29.639Z,35.83
2023-05-09T12:47:02.846Z,35.80
2023-05-09T12:49:31.574Z,38.40
2023-05-09T12:52:01.570Z,32.10
2023-05-09T12:54:30.264Z,26.92
2023-05-09T12:56:58.455Z,25.98
2023-05-09T12:59:26.967Z,27.02
2023-05-09T13:02:00.679Z,26.25
2023-05-09T13:04:28.519Z,27.25
2023-05-09T13:06:57.724Z,27.25
2023-05-09T13:09:26.277Z,29.77
2023-05-09T13:11:53.618Z,26.38
2023-05-09T13:14:23.595Z,24.80
2023-05-09T13:16:50.397Z,25.15
2023-05-09T13:19:17.160Z,24.02
2023-05-09T13:21:43.819Z,22.65
2023-05-09T13:24:10.717Z,20.45
2023-05-09T13:26:37.286Z,23.65
2023-05-09T13:29:03.997Z,22.83
2023-05-09T13:31:31.144Z,22.35
2023-05-09T13:33:57.892Z,25.33
2023-05-09T13:36:24.604Z,25.48
2023-05-09T13:38:51.196Z,26.02
2023-05-09T13:41:21.778Z,25.20
2023-05-09T13:43:48.638Z,25.08
2023-05-09T13:46:15.659Z,29.63
2023-05-09T13:48:42.441Z,27.75
2023-05-09T13:51:09.952Z,29.50
2023-05-09T13:53:38.860Z,26.63
2023-05-09T13:56:07.491Z,33.60
2023-05-09T13:58:34.173Z,34.97
2023-05-09T14:01:00.831Z,35.38
2023-05-09T14:03:27.575Z,46.10
2023-05-09T14:05:54.327Z,40.58
2023-05-09T14:08:21.468Z,40.20
2023-05-09T14:10:48.220Z,40.15
2023-05-09T14:13:15.694Z,44.35
2023-05-09T14:15:42.495Z,43.33
2023-05-09T14:18:09.223Z,39.70
2023-05-09T14:20:37.453Z,34.30
2023-05-09T14:23:04.286Z,36.85
2023-05-09T14:25:30.935Z,33.80
2023-05-09T14:27:59.270Z,31.85
2023-05-09T14:30:26.663Z,27.40
2023-05-09T14:32:53.481Z,24.02
2023-05-09T14:35:20.371Z,21.02
2023-05-09T14:37:47.189Z,20.33
2023-05-09T14:40:14.776Z,22.15
2023-05-09T14:42:42.155Z,20.65
2023-05-09T14:45:12.144Z,21.85
2023-05-09T14:47:38.980Z,20.67
2023-05-09T14:50:07.311Z,21.00
2023-05-09T14:52:34.057Z,21.85
2023-05-09T14:55:00.701Z,21.83
2023-05-09T14:57:27.646Z,22.33
2023-05-09T14:59:54.293Z,20.70
2023-05-09T15:02:21.079Z,22.05
2023-05-09T15:04:47.727Z,22.67
2023-05-09T15:07:14.334Z,20.13
2023-05-09T15:09:41.784Z,23.83
2023-05-09T15:12:08.424Z,22.05
2023-05-09T15:14:35.145Z,23.55
2023-05-09T15:17:04.242Z,23.60
2023-05-09T15:19:31.493Z,25.92
2023-05-09T15:21:59.694Z,27.00
2023-05-09T15:24:26.860Z,29.95
2023-05-09T15:26:54.277Z,24.40
2023-05-09T15:29:21.737Z,25.05
2023-05-09T15:31:48.976Z,25.42
2023-05-09T15:34:15.634Z,26.25
2023-05-09T15:36:42.362Z,25.25
2023-05-09T15:39:09.094Z,22.95
2023-05-09T15:41:35.687Z,26.17
2023-05-09T15:44:02.399Z,25.77
2023-05-09T15:46:29.694Z,26.58
2023-05-09T15:48:58.224Z,26.88
2023-05-09T15:51:25.169Z,27.38
2023-05-09T15:53:52.006Z,30.40
2023-05-09T15:56:19.070Z,34.90
2023-05-09T15:58:46.091Z,45.45
2023-05-09T16:01:14.428Z,85.97
2023-05-09T16:03:41.638Z,60.58
2023-05-09T16:06:08.404Z,59.80
2023-05-09T16:08:35.116Z,61.13
2023-05-09T16:11:02.040Z,109.60
2023-05-09T16:13:29.857Z,57.60
2023-05-09T16:15:56.926Z,91.60
2023-05-09T16:18:23.803Z,124.93
2023-05-09T16:20:50.655Z,58.03
2023-05-09T16:23:17.622Z,76.85
2023-05-09T16:25:44.991Z,72.15
2023-05-09T16:28:11.742Z,63.22
2023-05-09T16:30:38.448Z,54.20
2023-05-09T16:33:05.069Z,49.65
2023-05-09T16:35:31.850Z,42.00
2023-05-09T16:37:58.562Z,57.78
2023-05-09T16:40:25.207Z,39.70
2023-05-09T16:42:53.098Z,40.70
2023-05-09T16:45:19.810Z,29.20
2023-05-09T16:47:46.506Z,25.27
2023-05-09T16:50:13.613Z,38.33
2023-05-09T16:52:40.343Z,24.23
2023-05-09T16:55:07.331Z,29.15
2023-05-09T16:57:34.031Z,26.15
2023-05-09T17:00:00.903Z,30.02
2023-05-09T17:02:27.672Z,38.35
2023-05-09T17:04:54.638Z,27.27
2023-05-09T17:07:21.425Z,36.70
2023-05-09T17:09:49.637Z,35.80
2023-05-09T17:12:18.276Z,65.55
2023-05-09T17:14:46.608Z,40.97
2023-05-09T17:17:14.512Z,50.22
2023-05-09T17:19:41.198Z,38.47
2023-05-09T17:22:08.608Z,33.92
2023-05-09T17:24:35.250Z,43.97
2023-05-09T17:27:02.158Z,42.28
2023-05-09T17:29:30.734Z,34.17
2023-05-09T17:32:00.564Z,40.80
2023-05-09T17:34:28.140Z,41.55
2023-05-09T17:36:54.758Z,35.10
2023-05-09T17:39:22.040Z,54.38
2023-05-09T17:41:48.684Z,44.60
2023-05-09T17:44:15.923Z,42.08
2023-05-09T17:46:43.022Z,40.45
2023-05-09T17:49:11.052Z,45.65
2023-05-09T17:51:37.708Z,77.43
2023-05-09T17:54:05.472Z,48.78
2023-05-09T17:56:32.198Z,63.55
2023-05-09T17:59:01.854Z,71.80
2023-05-09T18:03:55.230Z,73.10
2023-05-09T18:06:21.984Z,50.30
2023-05-09T18:08:48.639Z,67.53
2023-05-09T18:11:15.523Z,71.20
2023-05-09T18:13:42.181Z,65.00
2023-05-09T18:16:08.944Z,52.95
2023-05-09T18:18:36.452Z,70.43
2023-05-09T18:21:04.846Z,92.32
2023-05-09T18:23:31.563Z,53.40
2023-05-09T18:25:58.322Z,111.53
2023-05-09T18:28:25.730Z,83.47
2023-05-09T18:31:00.400Z,69.13
2023-05-09T18:33:28.617Z,55.50
2023-05-09T18:35:55.335Z,118.78
2023-05-09T18:38:23.718Z,107.03
2023-05-09T18:40:51.926Z,91.43
2023-05-09T18:43:20.688Z,183.63
2023-05-09T18:45:48.109Z,288.03
2023-05-09T18:48:17.558Z,23.65
2023-05-09T18:50:44.772Z,16.15
2023-05-09T18:53:11.562Z,24.58
2023-05-09T18:55:38.740Z,45.45
2023-05-09T18:58:06.208Z,38.05
2023-05-09T19:00:34.204Z,64.22
2023-05-09T19:03:00.932Z,77.63
2023-05-09T19:05:27.753Z,42.10
2023-05-09T19:07:54.411Z,73.72
2023-05-09T19:10:21.262Z,50.75
2023-05-09T19:12:49.023Z,67.10
2023-05-09T19:15:16.063Z,39.22
2023-05-09T19:17:42.707Z,79.65
2023-05-09T19:20:10.028Z,46.33
2023-05-09T19:22:36.912Z,40.97
2023-05-09T19:25:03.792Z,52.53
2023-05-09T19:27:30.611Z,73.53
2023-05-09T19:29:57.215Z,60.72
2023-05-09T19:32:23.821Z,58.15
2023-05-09T19:34:50.612Z,26.70
2023-05-09T19:37:17.363Z,40.15
2023-05-09T19:39:44.089Z,35.63
2023-05-09T19:42:10.831Z,37.80
2023-05-09T19:44:37.465Z,29.70
2023-05-09T19:47:05.370Z,36.15
2023-05-09T19:49:32.795Z,63.70
2023-05-09T19:51:59.399Z,92.82
2023-05-09T19:54:27.051Z,56.55
2023-05-09T19:56:53.822Z,88.57
2023-05-09T19:59:20.543Z,98.75
2023-05-09T20:01:47.244Z,42.67
2023-05-09T20:04:13.928Z,73.20
2023-05-09T20:06:41.200Z,44.33
2023-05-09T20:09:07.830Z,305.00
2023-05-09T20:11:34.462Z,396.17
2023-05-09T20:14:00.999Z,548.75
2023-05-09T20:16:27.767Z,89.70
2023-05-09T20:18:55.046Z,123.22
2023-05-09T20:21:21.824Z,193.98
2023-05-09T20:23:48.394Z,73.55
2023-05-09T20:26:15.007Z,95.45
2023-05-09T20:28:41.643Z,107.78
2023-05-09T20:31:08.289Z,56.42
2023-05-09T20:33:35.141Z,62.92
2023-05-09T20:36:01.812Z,84.13
2023-05-09T20:38:28.515Z,102.25
2023-05-09T20:40:55.150Z,80.32
2023-05-09T20:43:21.838Z,142.63
2023-05-09T20:45:48.599Z,372.20
2023-05-09T20:48:15.262Z,106.13
2023-05-09T20:50:41.975Z,126.40
2023-05-09T20:53:08.644Z,142.52
2023-05-09T20:55:35.275Z,182.05
2023-05-09T20:58:01.961Z,145.32
2023-05-09T21:00:28.758Z,163.32
2023-05-09T21:02:58.274Z,263.20
2023-05-09T21:05:25.522Z,206.05
2023-05-09T21:07:52.093Z,172.25
2023-05-09T21:10:18.859Z,172.88
2023-05-09T21:12:45.606Z,168.90
2023-05-09T21:15:12.308Z,216.77
2023-05-09T21:17:39.007Z,154.68
2023-05-09T21:20:06.369Z,130.63
2023-05-09T21:22:33.015Z,117.25
2023-05-09T21:24:59.606Z,156.85
2023-05-09T21:27:26.969Z,187.50
2023-05-09T21:29:53.561Z,144.32
2023-05-09T21:32:20.178Z,124.80
2023-05-09T21:34:47.827Z,72.68
2023-05-09T21:37:15.110Z,80.75
2023-05-09T21:39:41.839Z,74.03
2023-05-09T21:42:08.887Z,121.25
2023-05-09T21:44:35.947Z,83.05
2023-05-09T21:47:02.755Z,73.10
2023-05-09T21:49:29.624Z,97.65
2023-05-09T21:51:56.366Z,150.27
2023-05-09T21:54:23.307Z,131.25
2023-05-09T21:56:49.906Z,88.97
2023-05-09T21:59:17.799Z,61.45
2023-05-09T22:01:46.019Z,100.68
2023-05-09T22:04:12.823Z,159.80
2023-05-09T22:06:41.587Z,139.55
2023-05-09T22:09:09.390Z,121.63
2023-05-09T22:11:36.447Z,75.78
2023-05-09T22:14:03.168Z,50.83
2023-05-09T22:16:30.291Z,49.10
2023-05-09T22:18:57.064Z,40.13
2023-05-09T22:21:23.688Z,54.58
2023-05-09T22:23:50.355Z,40.55
2023-05-09T22:26:16.930Z,58.22
2023-05-09T22:28:43.615Z,32.40
2023-05-09T22:31:10.510Z,49.58
2023-05-09T22:33:37.119Z,69.40
2023-05-09T22:36:04.030Z,54.35
2023-05-09T22:38:30.703Z,50.88
2023-05-09T22:40:57.322Z,51.45
2023-05-09T22:43:25.393Z,127.95
2023-05-09T22:45:55.395Z,55.85
2023-05-09T22:48:22.039Z,58.08
2023-05-09T22:50:48.890Z,47.97
2023-05-09T22:53:16.445Z,46.17
2023-05-09T22:55:43.036Z,46.65
2023-05-09T22:58:10.163Z,91.97
2023-05-09T23:00:36.885Z,88.60
2023-05-09T23:03:04.468Z,55.58
2023-05-09T23:05:31.233Z,83.97
2023-05-09T23:07:57.918Z,89.82
2023-05-09T23:10:24.547Z,56.88
2023-05-09T23:12:51.326Z,97.65
2023-05-09T23:15:18.076Z,87.43
2023-05-09T23:17:44.764Z,76.35
2023-05-09T23:20:11.804Z,49.78
2023-05-09T23:22:39.587Z,8.02
2023-05-09T23:25:07.064Z,31.92
2023-05-09T23:27:33.648Z,7.07
2023-05-09T23:30:00.348Z,8.80
2023-05-09T23:32:27.060Z,4.10
2023-05-09T23:34:53.708Z,3.13
2023-05-09T23:37:20.334Z,1.65
2023-05-09T23:39:46.984Z,1.80
2023-05-09T23:42:13.662Z,1.00
2023-05-09T23:44:40.306Z,0.88
2023-05-09T23:47:07.086Z,0.90
2023-05-09T23:49:33.739Z,4.75
2023-05-09T23:52:00.334Z,0.88
2023-05-09T23:54:27.121Z,1.15
2023-05-09T23:56:54.035Z,3.97
2023-05-09T23:59:20.623Z,0.93
